Terminal Aerodrome Forecast
Issued by NWS Duluth, MN

Home | Current Version | Previous Version | Text Only | Print | Product List | Glossary On
Versions: 1 2 3 4 5 6 7 8 9 10 11 12 13 14 15 16 17
000
FTUS43 KDLH 231100
TAFDLH
TAF
KDLH 231126Z 2312/2412 32008KT P6SM SKC
     FM231500 32008G15KT P6SM SCT040
     FM232200 29006KT P6SM SCT050
     FM240600 34005KT P6SM SCT050 OVC100=

USA.gov is the U.S. government's official web portal to all federal, state and local government web resources and services.